createdAt,value
2016-04-13T00:00:25.503Z,71.87
2016-04-13T00:01:25.506Z,71.87
2016-04-13T00:02:25.508Z,71.77
2016-04-13T00:03:25.496Z,71.68
2016-04-13T00:04:25.499Z,71.77
2016-04-13T00:05:25.501Z,71.68
2016-04-13T00:06:25.504Z,72.06
2016-04-13T00:07:25.506Z,71.96
2016-04-13T00:08:25.514Z,72.16
2016-04-13T00:09:25.517Z,72.34
2016-04-13T00:10:25.503Z,72.34
2016-04-13T00:11:25.506Z,71.77
2016-04-13T00:12:25.509Z,72.31
2016-04-13T00:13:25.511Z,72.02
2016-04-13T00:14:25.498Z,72.44
2016-04-13T00:15:25.517Z,72.53
2016-04-13T00:16:25.503Z,72.21
2016-04-13T00:17:25.506Z,72.41
2016-04-13T00:18:25.509Z,72.69
2016-04-13T00:19:25.511Z,72.6
2016-04-13T00:20:25.515Z,72.41
2016-04-13T00:21:25.503Z,72.41
2016-04-13T00:22:25.504Z,72.12
2016-04-13T00:23:25.508Z,72.88
2016-04-13T00:24:25.572Z,72.69
2016-04-13T00:25:25.513Z,72.6
2016-04-13T00:26:25.516Z,73.26
2016-04-13T00:27:25.518Z,73.45
2016-04-13T00:28:25.505Z,73.45
2016-04-13T00:29:25.508Z,73.45
2016-04-13T00:30:25.526Z,73.45
2016-04-13T00:31:25.513Z,73.07
2016-04-13T00:32:25.516Z,73.74
2016-04-13T00:33:25.518Z,73.65
2016-04-13T00:34:25.521Z,74.12
2016-04-13T00:35:25.509Z,73.93
2016-04-13T00:36:25.526Z,74.21
2016-04-13T00:37:25.514Z,74.21
2016-04-13T00:38:25.531Z,74.21
2016-04-13T00:39:25.519Z,74.21
2016-04-13T00:40:25.523Z,74.02
2016-04-13T00:41:25.712Z,74.69
2016-04-13T00:42:25.512Z,74.79
2016-04-13T00:43:25.514Z,74.69
2016-04-13T00:44:25.517Z,74.88
2016-04-13T00:45:25.520Z,74.88
2016-04-13T00:46:25.523Z,75.26
2016-04-13T00:47:25.509Z,75.23
2016-04-13T00:48:25.512Z,75.13
2016-04-13T00:49:25.515Z,75.23
2016-04-13T00:50:25.517Z,75.6
2016-04-13T00:51:25.519Z,75.23
2016-04-13T00:52:25.522Z,75.89
2016-04-13T00:53:25.541Z,75.7
2016-04-13T00:54:25.528Z,76.08
2016-04-13T00:55:25.515Z,76.18
2016-04-13T00:56:25.533Z,76.18
2016-04-13T00:57:25.521Z,76.18
2016-04-13T00:58:25.523Z,76.37
2016-04-13T00:59:25.526Z,76.75
2016-04-13T01:00:25.529Z,77.03
2016-04-13T01:01:25.515Z,76.37
2016-04-13T01:02:25.518Z,76.84
2016-04-13T01:03:25.521Z,77.03
2016-04-13T01:04:25.523Z,77.32
2016-04-13T01:05:25.526Z,77.42
2016-04-13T01:06:25.529Z,77.32
2016-04-13T01:07:25.532Z,77.7
2016-04-13T01:08:25.519Z,77.8
2016-04-13T01:09:25.538Z,77.61
2016-04-13T01:10:25.524Z,77.7
2016-04-13T01:11:25.526Z,78.08
2016-04-13T01:12:25.534Z,77.98
2016-04-13T01:13:25.536Z,78.08
2016-04-13T01:14:25.523Z,77.89
2016-04-13T01:15:25.526Z,78.37
2016-04-13T01:16:25.529Z,78.37
2016-04-13T01:17:25.531Z,78.37
2016-04-13T01:18:25.534Z,78.37
2016-04-13T01:19:25.537Z,78.37
2016-04-13T01:20:25.540Z,79.22
2016-04-13T01:21:25.543Z,79.03
2016-04-13T01:22:25.533Z,78.56
2016-04-13T01:23:25.536Z,78.75
2016-04-13T01:24:25.539Z,78.75
2016-04-13T01:25:25.525Z,78.85
2016-04-13T01:26:25.528Z,78.75
2016-04-13T01:27:25.531Z,78.75
2016-04-13T01:28:25.533Z,78.65
2016-04-13T01:29:25.536Z,78.85
2016-04-13T01:30:25.539Z,78.85
2016-04-13T01:31:25.526Z,79.41
2016-04-13T01:32:25.529Z,79.22
2016-04-13T01:33:25.829Z,79.32
2016-04-13T01:34:25.534Z,79.13
2016-04-13T01:35:25.537Z,79.22
2016-04-13T01:36:25.539Z,79.41
2016-04-13T01:37:25.542Z,79.22
2016-04-13T01:38:25.529Z,79.32
2016-04-13T01:39:25.532Z,79.22
2016-04-13T01:40:25.535Z,79.51
2016-04-13T01:41:25.537Z,79.32
2016-04-13T01:42:25.540Z,79.41
2016-04-13T01:43:25.527Z,79.41
2016-04-13T01:44:25.530Z,79.41
2016-04-13T01:45:25.532Z,79.41
2016-04-13T01:46:25.551Z,79.03
2016-04-13T01:47:25.538Z,79.99
2016-04-13T01:48:25.540Z,79.89
2016-04-13T01:49:25.543Z,79.75
2016-04-13T01:50:25.577Z,79.6
2016-04-13T01:51:25.533Z,79.75
2016-04-13T01:52:25.536Z,79.6
2016-04-13T01:53:25.522Z,79.51
2016-04-13T01:54:25.552Z,79.57
2016-04-13T01:55:25.597Z,80.23
2016-04-13T01:56:25.627Z,80.13
2016-04-13T01:57:25.690Z,80.42
2016-04-13T01:58:25.718Z,80.13
2016-04-13T01:59:25.758Z,80.42
2016-04-13T02:00:25.775Z,80.52
2016-04-13T02:01:25.794Z,80.61
2016-04-13T02:02:25.812Z,80.52
2016-04-13T02:03:25.814Z,80.42
2016-04-13T02:04:25.845Z,80.61
2016-04-13T02:05:25.839Z,80.71
2016-04-13T02:06:25.846Z,81.09
2016-04-13T02:07:25.855Z,80.99
2016-04-13T02:08:25.863Z,80.9
2016-04-13T02:09:25.853Z,80.99
2016-04-13T02:10:25.858Z,80.99
2016-04-13T02:11:25.863Z,80.52
2016-04-13T02:12:25.867Z,80.99
2016-04-13T02:13:25.873Z,80.99
2016-04-13T02:14:25.876Z,81.09
2016-04-13T02:15:25.880Z,80.9
2016-04-13T02:16:25.884Z,80.71
2016-04-13T02:17:25.871Z,80.52
2016-04-13T02:18:25.890Z,80.52
2016-04-13T02:19:25.877Z,80.8
2016-04-13T02:20:25.881Z,80.8
2016-04-13T02:21:25.900Z,80.9
2016-04-13T02:22:25.887Z,80.71
2016-04-13T02:23:25.890Z,80.99
2016-04-13T02:24:25.893Z,80.99
2016-04-13T02:25:25.896Z,81.09
2016-04-13T02:26:25.883Z,81.09
2016-04-13T02:27:25.886Z,80.71
2016-04-13T02:28:25.873Z,80.52
2016-04-13T02:29:25.876Z,80.9
2016-04-13T02:30:25.879Z,81.09
2016-04-13T02:31:25.881Z,81.37
2016-04-13T02:32:25.884Z,81.37
2016-04-13T02:33:25.887Z,81.09
2016-04-13T02:34:25.889Z,81.09
2016-04-13T02:35:25.892Z,81.09
2016-04-13T02:36:25.879Z,81.18
2016-04-13T02:37:25.881Z,81.37
2016-04-13T02:38:25.884Z,81.37
2016-04-13T02:39:25.887Z,81.66
2016-04-13T02:40:25.889Z,81.81
2016-04-13T02:41:25.874Z,82
2016-04-13T02:42:25.877Z,81.9
2016-04-13T02:43:25.880Z,81.81
2016-04-13T02:44:25.882Z,82.38
2016-04-13T02:45:25.884Z,82.57
2016-04-13T02:46:25.887Z,82.38
2016-04-13T02:47:25.875Z,82.76
2016-04-13T02:48:25.877Z,82.76
2016-04-13T02:49:25.880Z,82.76
2016-04-13T02:50:25.882Z,82.38
2016-04-13T02:51:25.963Z,83.14
2016-04-13T02:52:25.888Z,83.23
2016-04-13T02:53:25.906Z,83.33
2016-04-13T02:54:25.878Z,83.14
2016-04-13T02:55:25.880Z,82.95
2016-04-13T02:56:25.883Z,83.42
2016-04-13T02:57:25.886Z,83.23
2016-04-13T02:58:25.888Z,83.52
2016-04-13T02:59:25.891Z,83.62
2016-04-13T03:00:25.878Z,83.52
2016-04-13T03:01:25.881Z,83.23
2016-04-13T03:02:25.884Z,83.81
2016-04-13T03:03:25.886Z,83.81
2016-04-13T03:04:25.889Z,83.71
2016-04-13T03:05:25.892Z,83.9
2016-04-13T03:06:25.926Z,83.9
2016-04-13T03:07:25.881Z,83.71
2016-04-13T03:08:25.884Z,84.19
2016-04-13T03:09:25.886Z,84.28
2016-04-13T03:10:25.889Z,84.38
2016-04-13T03:11:25.892Z,84.38
2016-04-13T03:12:25.910Z,84.66
2016-04-13T03:13:25.897Z,84.47
2016-04-13T03:14:25.884Z,84.76
2016-04-13T03:15:25.731Z,84.76
2016-04-13T03:16:25.906Z,84.76
2016-04-13T03:17:25.908Z,84.85
2016-04-13T03:18:25.896Z,84.66
2016-04-13T03:19:25.882Z,84.56
2016-04-13T03:20:25.885Z,84.76
2016-04-13T03:21:25.951Z,84.56
2016-04-13T03:22:25.891Z,84.85
2016-04-13T03:23:25.893Z,84.85
2016-04-13T03:24:25.879Z,84.85
2016-04-13T03:25:25.898Z,84.56
2016-04-13T03:26:25.901Z,84.47
2016-04-13T03:27:25.887Z,84.47
2016-04-13T03:28:25.906Z,84.47
2016-04-13T03:29:25.893Z,84.47
2016-04-13T03:30:25.896Z,84.47
2016-04-13T03:31:25.899Z,84.56
2016-04-13T03:32:25.886Z,84.33
2016-04-13T03:33:25.889Z,84.19
2016-04-13T03:34:25.892Z,84.28
2016-04-13T03:35:25.894Z,84.04
2016-04-13T03:36:25.944Z,83.94
2016-04-13T03:37:25.900Z,83.94
2016-04-13T03:38:25.886Z,83.75
2016-04-13T03:39:25.889Z,83.85
2016-04-13T03:40:25.897Z,83.94
2016-04-13T03:41:25.899Z,84.04
2016-04-13T03:42:25.902Z,83.75
2016-04-13T03:43:25.888Z,83.94
2016-04-13T03:44:25.892Z,83.75
2016-04-13T03:45:25.894Z,83.47
2016-04-13T03:46:25.897Z,83.47
2016-04-13T03:47:25.884Z,83.56
2016-04-13T03:48:25.887Z,83.28
2016-04-13T03:49:25.905Z,83.47
2016-04-13T03:50:25.892Z,83.56
2016-04-13T03:51:25.926Z,82.8
2016-04-13T03:52:25.898Z,82.99
2016-04-13T03:53:25.884Z,83.18
2016-04-13T03:54:25.887Z,83.18
2016-04-13T03:55:25.890Z,83.09
2016-04-13T03:56:25.893Z,83.18
2016-04-13T03:57:25.895Z,83.28
2016-04-13T03:58:25.898Z,83.37
2016-04-13T03:59:25.901Z,83.28
2016-04-13T04:00:25.904Z,83.09
2016-04-13T04:01:25.906Z,83.18
2016-04-13T04:02:25.894Z,82.99
2016-04-13T04:03:25.896Z,82.8
2016-04-13T04:04:25.899Z,82.61
2016-04-13T04:05:25.902Z,82.9
2016-04-13T04:06:25.919Z,82.9
2016-04-13T04:07:25.891Z,82.9
2016-04-13T04:08:25.894Z,82.7
2016-04-13T04:09:25.897Z,82.8
2016-04-13T04:10:25.899Z,82.51
2016-04-13T04:11:25.902Z,83.09
2016-04-13T04:12:25.889Z,83.14
2016-04-13T04:13:25.892Z,83.23
2016-04-13T04:14:25.895Z,82.95
2016-04-13T04:15:25.897Z,82.95
2016-04-13T04:16:25.900Z,83.14
2016-04-13T04:17:25.887Z,83.23
2016-04-13T04:18:25.890Z,83.52
2016-04-13T04:19:25.908Z,83.23
2016-04-13T04:20:25.895Z,84.09
2016-04-13T04:21:25.913Z,83.71
2016-04-13T04:22:25.900Z,84.09
2016-04-13T04:23:25.903Z,84.19
2016-04-13T04:24:25.890Z,83.9
2016-04-13T04:25:25.893Z,83.71
2016-04-13T04:26:25.895Z,84.19
2016-04-13T04:27:25.898Z,83.9
2016-04-13T04:28:25.901Z,84
2016-04-13T04:29:25.904Z,84.19
2016-04-13T04:30:25.906Z,84
2016-04-13T04:31:25.893Z,83.9
2016-04-13T04:32:25.896Z,84
2016-04-13T04:33:25.899Z,84.38
2016-04-13T04:34:25.901Z,84.47
2016-04-13T04:35:25.904Z,84.47
2016-04-13T04:36:25.891Z,84.28
2016-04-13T04:37:25.894Z,84.38
2016-04-13T04:38:25.912Z,84.66
2016-04-13T04:39:25.899Z,84.56
2016-04-13T04:40:25.902Z,84.76
2016-04-13T04:41:25.905Z,84.66
2016-04-13T04:42:25.892Z,84.62
2016-04-13T04:43:25.895Z,84.72
2016-04-13T04:44:25.897Z,84.52
2016-04-13T04:45:25.900Z,84.91
2016-04-13T04:46:25.902Z,85
2016-04-13T04:47:25.905Z,85.28
2016-04-13T04:48:25.907Z,85.38
2016-04-13T04:49:25.895Z,85.38
2016-04-13T04:50:25.898Z,85.1
2016-04-13T04:51:25.901Z,85.28
2016-04-13T04:52:25.903Z,85.57
2016-04-13T04:53:25.906Z,85.86
2016-04-13T04:54:25.892Z,85.19
2016-04-13T04:55:25.895Z,85.57
2016-04-13T04:56:25.898Z,85.66
2016-04-13T04:57:25.901Z,85.66
2016-04-13T04:58:25.904Z,85.38
2016-04-13T04:59:25.907Z,85.57
2016-04-13T05:00:25.893Z,85.76
2016-04-13T05:01:25.896Z,85.66
2016-04-13T05:02:25.898Z,86.05
2016-04-13T05:03:25.901Z,85.95
2016-04-13T05:04:25.904Z,85.95
2016-04-13T05:05:25.906Z,85.66
2016-04-13T05:06:25.894Z,85.95
2016-04-13T05:07:25.897Z,86.52
2016-04-13T05:08:25.899Z,85.47
2016-04-13T05:09:25.917Z,86.05
2016-04-13T05:10:25.905Z,85.95
2016-04-13T05:11:25.908Z,86.33
2016-04-13T05:12:25.910Z,86.43
2016-04-13T05:13:25.913Z,86.43
2016-04-13T05:14:25.899Z,86.61
2016-04-13T05:15:25.902Z,86.52
2016-04-13T05:16:25.920Z,86.43
2016-04-13T05:17:25.907Z,87.09
2016-04-13T05:18:25.910Z,86.9
2016-04-13T05:19:25.913Z,86.61
2016-04-13T05:20:25.900Z,86.71
2016-04-13T05:21:25.902Z,87.19
2016-04-13T05:22:25.922Z,86.9
2016-04-13T05:23:25.907Z,87.19
2016-04-13T05:24:25.910Z,87.23
2016-04-13T05:25:25.898Z,87.23
2016-04-13T05:26:25.916Z,87.32
2016-04-13T05:27:25.904Z,87.32
2016-04-13T05:28:25.906Z,86.85
2016-04-13T05:29:25.909Z,86.7
2016-04-13T05:30:25.912Z,86.99
2016-04-13T05:31:25.914Z,86.32
2016-04-13T05:32:25.917Z,86.65
2016-04-13T05:33:25.919Z,86.08
2016-04-13T05:34:25.907Z,86.08
2016-04-13T05:35:25.909Z,85.41
2016-04-13T05:36:25.928Z,86.36
2016-04-13T05:37:25.914Z,85.74
2016-04-13T05:38:25.902Z,84.98
2016-04-13T05:39:25.904Z,84.88
2016-04-13T05:40:25.923Z,84.31
2016-04-13T05:41:25.910Z,84.26
2016-04-13T05:42:25.913Z,83.97
2016-04-13T05:43:25.915Z,83.25
2016-04-13T05:44:25.918Z,81.43
2016-04-13T05:45:25.905Z,79.85
2016-04-13T05:46:25.907Z,78.41
2016-04-13T05:47:25.910Z,77.36
2016-04-13T05:48:25.913Z,76.25
2016-04-13T05:49:25.915Z,74.76
2016-04-13T05:50:25.918Z,72.5
2016-04-13T05:51:25.921Z,69
2016-04-13T05:52:25.907Z,67.05
2016-04-13T05:53:25.910Z,63.16
2016-04-13T05:54:25.961Z,60.7
2016-04-13T05:55:25.916Z,58.81
2016-04-13T05:56:25.918Z,56.41
2016-04-13T05:57:25.921Z,54.52
2016-04-13T05:58:25.924Z,52.43
2016-04-13T05:59:25.927Z,50.44
2016-04-13T06:00:25.929Z,48.54
2016-04-13T06:01:25.932Z,46.26
2016-04-13T06:02:25.920Z,44.65
2016-04-13T06:03:25.922Z,41.88
2016-04-13T06:04:25.940Z,40.36
2016-04-13T06:05:25.942Z,39.78
2016-04-13T06:06:25.931Z,38.24
2016-04-13T06:07:25.933Z,37.01
2016-04-13T06:08:25.936Z,36.06
2016-04-13T06:09:25.954Z,35.65
2016-04-13T06:10:25.941Z,35
2016-04-13T06:11:25.944Z,34.24
2016-04-13T06:12:25.962Z,33.95
2016-04-13T06:13:25.950Z,32.62
2016-04-13T06:14:25.952Z,31.76
2016-04-13T06:15:25.969Z,31.28
2016-04-13T06:16:25.972Z,30.61
2016-04-13T06:17:25.975Z,30.43
2016-04-13T06:18:25.977Z,29.67
2016-04-13T06:19:25.980Z,28.23
2016-04-13T06:20:25.983Z,27.47
2016-04-13T06:21:26.002Z,26.42
2016-04-13T06:22:25.988Z,26.05
2016-04-13T06:23:25.992Z,24.9
2016-04-13T06:24:25.994Z,24.23
2016-04-13T06:25:26.012Z,23.75
2016-04-13T06:26:25.999Z,23.66
2016-04-13T06:27:26.002Z,23.47
2016-04-13T06:28:26.068Z,22.61
2016-04-13T06:29:26.023Z,22.12
2016-04-13T06:30:26.026Z,21.93
2016-04-13T06:31:26.029Z,21.73
2016-04-13T06:32:26.047Z,21.73
2016-04-13T06:33:26.034Z,21.54
2016-04-13T06:34:26.036Z,21.72
2016-04-13T06:35:26.055Z,22.2
2016-04-13T06:36:26.058Z,23.25
2016-04-13T06:37:26.060Z,23.72
2016-04-13T06:38:26.064Z,23.92
2016-04-13T06:39:26.066Z,23.71
2016-04-13T06:40:26.068Z,23.63
2016-04-13T06:41:26.087Z,23.71
2016-04-13T06:42:26.089Z,23.81
2016-04-13T06:43:26.092Z,23.72
2016-04-13T06:44:26.094Z,23.14
2016-04-13T06:45:26.097Z,22.85
2016-04-13T06:46:26.116Z,22
2016-04-13T06:47:26.119Z,21.24
2016-04-13T06:48:26.121Z,20.28
2016-04-13T06:49:26.124Z,20.37
2016-04-13T06:50:26.595Z,20.56
2016-04-13T06:51:26.130Z,20.85
2016-04-13T06:52:26.132Z,21.91
2016-04-13T06:53:26.150Z,23.05
2016-04-13T06:54:26.152Z,23.8
2016-04-13T06:55:26.155Z,24.27
2016-04-13T06:56:26.158Z,24.65
2016-04-13T06:57:26.177Z,24.46
2016-04-13T06:58:26.195Z,23.32
2016-04-13T06:59:26.182Z,21.88
2016-04-13T07:00:26.185Z,21.22
2016-04-13T07:01:26.203Z,20.74
2016-04-13T07:02:26.206Z,20.75
2016-04-13T07:03:26.209Z,20.56
2016-04-13T07:04:26.211Z,19.79
2016-04-13T07:05:26.229Z,19.61
2016-04-13T07:06:26.217Z,20.09
2016-04-13T07:07:26.234Z,20.95
2016-04-13T07:08:26.237Z,21.89
2016-04-13T07:09:26.239Z,22.19
2016-04-13T07:10:26.242Z,22.19
2016-04-13T07:11:26.261Z,21.12
2016-04-13T07:12:26.263Z,20.56
2016-04-13T07:13:26.266Z,19.6
2016-04-13T07:14:26.269Z,19.02
2016-04-13T07:15:26.272Z,17.21
2016-04-13T07:16:26.291Z,17.41
2016-04-13T07:17:26.293Z,16.35
2016-04-13T07:18:26.296Z,16.06
2016-04-13T07:19:26.314Z,15.2
2016-04-13T07:20:26.316Z,15.01
2016-04-13T07:21:26.320Z,15.11
2016-04-13T07:22:26.322Z,14.92
2016-04-13T07:23:26.325Z,15.01
2016-04-13T07:24:26.344Z,14.23
2016-04-13T07:25:26.346Z,14.81
2016-04-13T07:26:26.349Z,14.04
2016-04-13T07:27:26.366Z,13.85
2016-04-13T07:28:26.354Z,13.27
2016-04-13T07:29:26.372Z,12.88
2016-04-13T07:30:26.390Z,12.88
2016-04-13T07:31:26.393Z,12.87
2016-04-13T07:32:26.395Z,13.35
2016-04-13T07:33:26.398Z,13.45
2016-04-13T07:34:26.417Z,13.44
2016-04-13T07:35:26.419Z,12.76
2016-04-13T07:36:26.438Z,12.29
2016-04-13T07:37:26.425Z,12.01
2016-04-13T07:38:26.428Z,10.94
2016-04-13T07:39:26.446Z,10.17
2016-04-13T07:40:26.292Z,9.59
2016-04-13T07:41:26.467Z,8.72
2016-04-13T07:42:26.470Z,8.04
2016-04-13T07:43:26.472Z,7.55
2016-04-13T07:44:26.491Z,6.87
2016-04-13T07:45:26.477Z,6.39
2016-04-13T07:46:26.496Z,6.49
2016-04-13T07:47:26.499Z,6.09
2016-04-13T07:48:26.501Z,6.39
2016-04-13T07:49:26.519Z,7.37
2016-04-13T07:50:26.522Z,6.97
2016-04-13T07:51:26.525Z,7.35
2016-04-13T07:52:26.544Z,7.56
2016-04-13T07:53:26.546Z,8.33
2016-04-13T07:54:26.549Z,9.2
2016-04-13T07:55:26.566Z,10.46
2016-04-13T07:56:26.585Z,11.23
2016-04-13T07:57:26.588Z,11.13
2016-04-13T07:58:26.590Z,11.41
2016-04-13T07:59:26.594Z,11.41
2016-04-13T08:00:26.596Z,12.19
2016-04-13T08:01:26.615Z,12.28
2016-04-13T08:02:26.618Z,12.38
2016-04-13T08:03:26.620Z,12.48
2016-04-13T08:04:26.623Z,11.89
2016-04-13T08:05:26.640Z,11.9
2016-04-13T08:06:26.643Z,10.24
2016-04-13T08:07:26.646Z,10.15
2016-04-13T08:08:26.669Z,9.96
2016-04-13T08:09:26.656Z,9.38
2016-04-13T08:10:26.658Z,8.5
2016-04-13T08:11:26.677Z,7.82
2016-04-13T08:12:26.680Z,7.45
2016-04-13T08:13:26.682Z,7.26
2016-04-13T08:14:26.686Z,6.48
2016-04-13T08:15:26.703Z,6.48
2016-04-13T08:16:26.722Z,5.3
2016-04-13T08:17:26.709Z,5.21
2016-04-13T08:18:26.727Z,5.79
2016-04-13T08:19:26.730Z,6.76
2016-04-13T08:20:26.733Z,7.73
2016-04-13T08:21:26.751Z,9.58
2016-04-13T08:22:27.004Z,10.63
2016-04-13T08:23:26.757Z,11.11
2016-04-13T08:24:26.760Z,10.52
2016-04-13T08:25:26.763Z,9.84
2016-04-13T08:26:26.780Z,9.56
2016-04-13T08:27:26.799Z,8.89
2016-04-13T08:28:26.785Z,8.5
2016-04-13T08:29:26.804Z,8.7
2016-04-13T08:30:26.807Z,9.09
2016-04-13T08:31:26.809Z,9.47
2016-04-13T08:32:26.812Z,10.24
2016-04-13T08:33:26.658Z,11.4
2016-04-13T08:34:26.833Z,11.98
2016-04-13T08:35:26.836Z,13.13
2016-04-13T08:36:26.838Z,14.09
2016-04-13T08:37:26.857Z,14.85
2016-04-13T08:38:26.859Z,15.62
2016-04-13T08:39:26.862Z,16.09
2016-04-13T08:40:26.864Z,15.89
2016-04-13T08:41:27.086Z,15.03
2016-04-13T08:42:26.886Z,14.75
2016-04-13T08:43:26.888Z,14.18
2016-04-13T08:44:26.891Z,13.6
2016-04-13T08:45:26.893Z,12.74
2016-04-13T08:46:26.896Z,12.35
2016-04-13T08:47:26.914Z,12.26
2016-04-13T08:48:26.917Z,12.54
2016-04-13T08:49:26.920Z,12.63
2016-04-13T08:50:26.923Z,12.73
2016-04-13T08:51:26.941Z,13.41
2016-04-13T08:52:26.928Z,14.17
2016-04-13T08:53:26.946Z,14.45
2016-04-13T08:54:26.949Z,14.92
2016-04-13T08:55:26.952Z,15.31
2016-04-13T08:56:26.971Z,15.12
2016-04-13T08:57:26.974Z,15.31
2016-04-13T08:58:26.976Z,14.74
2016-04-13T08:59:26.994Z,14.07
2016-04-13T09:00:26.981Z,13.31
2016-04-13T09:01:26.984Z,12.16
2016-04-13T09:02:26.987Z,11.2
2016-04-13T09:03:27.004Z,9.94
2016-04-13T09:04:27.007Z,8.89
2016-04-13T09:05:26.994Z,8.01
2016-04-13T09:06:27.012Z,7.54
2016-04-13T09:07:27.093Z,6.27
2016-04-13T09:08:27.050Z,5.88
2016-04-13T09:09:27.020Z,5.3
2016-04-13T09:10:27.039Z,4.91
2016-04-13T09:11:27.042Z,4.82
2016-04-13T09:12:27.044Z,5.02
2016-04-13T09:13:27.047Z,5.11
2016-04-13T09:14:27.050Z,5.7
2016-04-13T09:15:27.069Z,5.89
2016-04-13T09:16:27.071Z,6.18
2016-04-13T09:17:27.074Z,6.47
2016-04-13T09:18:27.076Z,6.37
2016-04-13T09:19:27.079Z,6.66
2016-04-13T09:20:27.082Z,7.24
2016-04-13T09:21:27.085Z,7.24
2016-04-13T09:22:27.322Z,7.43
2016-04-13T09:23:27.105Z,7.14
2016-04-13T09:24:27.108Z,7.05
2016-04-13T09:25:27.110Z,7.34
2016-04-13T09:26:27.113Z,6.56
2016-04-13T09:27:27.116Z,6.66
2016-04-13T09:28:27.135Z,6.47
2016-04-13T09:29:27.138Z,6.37
2016-04-13T09:30:27.140Z,6.48
2016-04-13T09:31:27.143Z,6.57
2016-04-13T09:32:27.145Z,7.06
2016-04-13T09:33:27.273Z,7.25
2016-04-13T09:34:27.150Z,7.34
2016-04-13T09:35:27.168Z,7.83
2016-04-13T09:36:27.171Z,8.32
2016-04-13T09:37:27.189Z,8.41
2016-04-13T09:38:27.177Z,8.8
2016-04-13T09:39:27.179Z,8.98
2016-04-13T09:40:27.182Z,9.28
2016-04-13T09:41:27.184Z,9.96
2016-04-13T09:42:27.187Z,10.15
2016-04-13T09:43:27.206Z,10.25
2016-04-13T09:44:27.208Z,10.53
2016-04-13T09:45:27.211Z,11.11
2016-04-13T09:46:27.214Z,11.88
2016-04-13T09:47:27.216Z,12.27
2016-04-13T09:48:27.219Z,13.23
2016-04-13T09:49:27.238Z,13.52
2016-04-13T09:50:27.241Z,14.09
2016-04-13T09:51:27.228Z,14.18
2016-04-13T09:52:27.277Z,14.77
2016-04-13T09:53:27.249Z,15.14
2016-04-13T09:54:27.260Z,16.2
2016-04-13T09:55:27.322Z,17.55
2016-04-13T09:56:27.266Z,18.41
2016-04-13T09:57:27.269Z,18.99
2016-04-13T09:58:27.819Z,19.57
2016-04-13T09:59:27.338Z,19.28
2016-04-13T10:00:27.427Z,19.28
2016-04-13T10:01:27.286Z,19.57
2016-04-13T10:02:27.289Z,19.57
2016-04-13T10:03:27.292Z,20.25
2016-04-13T10:04:27.302Z,20.24
2016-04-13T10:05:27.289Z,20.24
2016-04-13T10:06:27.323Z,20.53
2016-04-13T10:07:27.450Z,20.52
2016-04-13T10:08:27.312Z,20.89
2016-04-13T10:09:27.314Z,20.99
2016-04-13T10:10:27.317Z,21.66
2016-04-13T10:11:27.351Z,22.13
2016-04-13T10:12:27.339Z,22.42
2016-04-13T10:13:35.341Z,22.99
2016-04-13T10:14:30.094Z,23.47
2016-04-13T10:15:31.831Z,24.05
2016-04-13T10:16:33.177Z,24.23
2016-04-13T10:17:27.353Z,24.81
2016-04-13T10:18:27.386Z,25.1
2016-04-13T10:19:27.358Z,25.48
2016-04-13T10:20:27.376Z,25.67
2016-04-13T10:21:27.378Z,26.06
2016-04-13T10:22:27.381Z,25.76
2016-04-13T10:23:27.384Z,25.76
2016-04-13T10:24:27.371Z,25.38
2016-04-13T10:25:27.389Z,25.09
2016-04-13T10:26:27.392Z,25.28
2016-04-13T10:27:27.394Z,24.99
2016-04-13T10:28:27.397Z,24.9
2016-04-13T10:29:27.400Z,24.71
2016-04-13T10:30:27.285Z,24.99
2016-04-13T10:31:27.412Z,25.28
2016-04-13T10:32:27.415Z,25.28
2016-04-13T10:33:27.262Z,25.67
2016-04-13T10:34:27.420Z,25.57
2016-04-13T10:35:27.423Z,25.37
2016-04-13T10:36:27.426Z,25.37
2016-04-13T10:37:27.475Z,25.55
2016-04-13T10:38:27.429Z,25.26
2016-04-13T10:39:27.432Z,25.74
2016-04-13T10:40:27.435Z,26.4
2016-04-13T10:41:27.453Z,26.21
2016-04-13T10:42:27.440Z,26.21
2016-04-13T10:43:27.459Z,26.21
2016-04-13T10:44:27.446Z,26.31
2016-04-13T10:45:27.495Z,26.21
2016-04-13T10:46:27.466Z,26.31
2016-04-13T10:47:27.469Z,26.11
2016-04-13T10:48:27.456Z,26.12
2016-04-13T10:49:27.475Z,26.51
2016-04-13T10:50:27.477Z,26.32
2016-04-13T10:51:27.480Z,26.61
2016-04-13T10:52:27.482Z,27.17
2016-04-13T10:53:27.485Z,27.85
2016-04-13T10:54:27.504Z,28.52
2016-04-13T10:55:27.491Z,29.38
2016-04-13T10:56:34.041Z,30.22
2016-04-13T10:57:30.527Z,31.27
2016-04-13T10:58:28.561Z,32.79
2016-04-13T10:59:34.689Z,33.18
2016-04-13T11:00:42.270Z,33.93
2016-04-13T11:01:34.001Z,34.68
2016-04-13T11:02:41.767Z,35.74
2016-04-13T11:03:32.752Z,38.41
2016-04-13T11:04:59.172Z,41
2016-04-13T11:06:17.291Z,42.6
2016-04-13T11:07:18.199Z,44.97
2016-04-13T11:09:14.518Z,47.25
2016-04-13T11:10:43.912Z,48.95
2016-04-13T11:12:00.078Z,50.07
2016-04-13T11:12:57.820Z,50.17
2016-04-13T11:14:04.860Z,51.2
2016-04-13T11:15:15.719Z,51.87
2016-04-13T11:16:21.740Z,52.63
2016-04-13T11:18:22.280Z,52.73
2016-04-13T11:19:10.640Z,53.11
2016-04-13T11:20:18.712Z,53.4
2016-04-13T11:21:10.946Z,53.3
2016-04-13T11:22:33.734Z,53.52
2016-04-13T11:23:33.738Z,53.52
2016-04-13T11:24:33.742Z,53.07
2016-04-13T11:25:33.745Z,52.59
2016-04-13T11:26:33.748Z,51.59
2016-04-13T11:27:33.751Z,50.46
2016-04-13T11:28:33.597Z,48.18
2016-04-13T11:29:33.758Z,47.15
2016-04-13T11:30:33.761Z,45.76
2016-04-13T11:31:33.763Z,44.53
2016-04-13T11:32:33.765Z,44.05
2016-04-13T11:33:33.769Z,42.91
2016-04-13T11:34:33.771Z,41.88
2016-04-13T11:35:33.774Z,40.84
2016-04-13T11:36:33.777Z,40.28
2016-04-13T11:37:33.779Z,39.79
2016-04-13T11:38:33.829Z,39.12
2016-04-13T11:39:33.784Z,37.98
2016-04-13T11:40:33.802Z,38.66
2016-04-13T11:41:33.805Z,38.56
2016-04-13T11:42:33.792Z,38.35
2016-04-13T11:43:33.795Z,39.12
2016-04-13T11:44:33.798Z,39.29
2016-04-13T11:45:33.815Z,39.2
2016-04-13T11:46:33.819Z,39.49
2016-04-13T11:47:33.821Z,39.76
2016-04-13T11:48:33.824Z,39.93
2016-04-13T11:49:33.827Z,40.41
2016-04-13T11:50:33.829Z,40.8
2016-04-13T11:51:33.831Z,41.18
2016-04-13T11:52:33.834Z,41.08
2016-04-13T11:53:33.837Z,41.56
2016-04-13T11:54:33.840Z,41.38
2016-04-13T11:55:33.843Z,41.68
2016-04-13T11:56:33.845Z,41.97
2016-04-13T11:57:33.864Z,41.97
2016-04-13T11:58:33.850Z,42.43
2016-04-13T11:59:33.853Z,43.01
2016-04-13T12:00:33.856Z,43.08
2016-04-13T12:01:33.859Z,43.37
2016-04-13T12:02:33.877Z,44.02
2016-04-13T12:03:33.880Z,44.6
2016-04-13T12:04:33.867Z,45.18
2016-04-13T12:05:33.886Z,46.12
2016-04-13T12:06:33.888Z,46.59
2016-04-13T12:07:33.891Z,47.53
2016-04-13T12:08:33.894Z,47.89
2016-04-13T12:09:33.881Z,48.47
2016-04-13T12:10:33.900Z,49.79
2016-04-13T12:11:33.903Z,50.37
2016-04-13T12:12:33.889Z,50.37
2016-04-13T12:13:33.908Z,51.1
2016-04-13T12:14:33.911Z,52.07
2016-04-13T12:15:33.914Z,52.07
2016-04-13T12:16:33.916Z,52.42
2016-04-13T12:17:33.919Z,53.09
2016-04-13T12:18:33.952Z,53.28
2016-04-13T12:19:33.924Z,53.19
2016-04-13T12:20:33.943Z,53.55
2016-04-13T12:21:33.929Z,53.93
2016-04-13T12:22:33.932Z,54.32
2016-04-13T12:23:33.951Z,54.89
2016-04-13T12:24:33.937Z,55.46
2016-04-13T12:25:33.940Z,55.56
2016-04-13T12:26:33.943Z,56.23
2016-04-13T12:27:33.946Z,56.39
2016-04-13T12:28:33.948Z,56.68
2016-04-13T12:29:33.951Z,56.97
2016-04-13T12:30:34.235Z,57.16
2016-04-13T12:31:33.956Z,57.64
2016-04-13T12:32:33.960Z,56.94
2016-04-13T12:33:33.962Z,57.7
2016-04-13T12:34:33.965Z,57.99
2016-04-13T12:35:33.983Z,57.9
2016-04-13T12:36:33.969Z,58.09
2016-04-13T12:37:33.973Z,58.18
2016-04-13T12:38:33.975Z,58.09
2016-04-13T12:39:33.994Z,57.99
2016-04-13T12:40:33.997Z,59.05
2016-04-13T12:41:33.984Z,59.05
2016-04-13T12:42:33.986Z,59.23
2016-04-13T12:43:33.989Z,59.05
2016-04-13T12:44:33.991Z,58.76
2016-04-13T12:45:34.010Z,58.56
2016-04-13T12:46:34.013Z,58.56
2016-04-13T12:47:33.999Z,58.66
2016-04-13T12:48:34.002Z,59.14
2016-04-13T12:49:34.021Z,58.95
2016-04-13T12:50:34.024Z,59.52
2016-04-13T12:51:34.027Z,59.33
2016-04-13T12:52:34.013Z,59.49
2016-04-13T12:53:34.015Z,59.3
2016-04-13T12:54:34.034Z,59.69
2016-04-13T12:55:34.021Z,59.97
2016-04-13T12:56:34.024Z,59.66
2016-04-13T12:57:34.027Z,60.23
2016-04-13T12:58:34.045Z,60.33
2016-04-13T12:59:34.048Z,60.13
2016-04-13T13:00:34.034Z,60.52
2016-04-13T13:01:34.037Z,60.58
2016-04-13T13:02:34.056Z,60.39